createdAt,value
2018-01-26T00:00:48.734Z,26.73
2018-01-26T00:03:16.226Z,27.70
2018-01-26T00:05:43.738Z,35.57
2018-01-26T00:08:11.239Z,30.20
2018-01-26T00:10:38.746Z,30.77
2018-01-26T00:13:06.247Z,30.67
2018-01-26T00:15:34.043Z,30.00
2018-01-26T00:18:01.543Z,36.57
2018-01-26T00:20:29.071Z,27.50
2018-01-26T00:22:56.574Z,41.13
2018-01-26T00:25:24.080Z,28.40
2018-01-26T00:27:51.784Z,36.63
2018-01-26T00:30:19.511Z,32.73
2018-01-26T00:32:47.007Z,35.13
2018-01-26T00:35:14.937Z,28.77
2018-01-26T00:37:42.438Z,23.00
2018-01-26T00:40:09.957Z,28.10
2018-01-26T00:42:37.459Z,26.50
2018-01-26T00:45:04.955Z,35.30
2018-01-26T00:47:32.459Z,65.27
2018-01-26T00:50:00.119Z,35.43
2018-01-26T00:52:27.611Z,25.03
2018-01-26T00:54:55.124Z,33.77
2018-01-26T00:57:22.780Z,31.97
2018-01-26T00:59:50.490Z,37.70
2018-01-26T01:02:18.053Z,30.67
2018-01-26T01:04:45.769Z,28.87
2018-01-26T01:07:13.283Z,21.87
2018-01-26T01:09:40.989Z,37.07
2018-01-26T01:12:08.753Z,24.67
2018-01-26T01:14:36.251Z,42.97
2018-01-26T01:17:03.755Z,27.30
2018-01-26T01:19:31.431Z,37.70
2018-01-26T01:21:58.938Z,41.27
2018-01-26T01:24:26.435Z,26.83
2018-01-26T01:26:53.941Z,41.20
2018-01-26T01:29:22.209Z,29.60
2018-01-26T01:31:49.715Z,27.90
2018-01-26T01:34:17.219Z,30.53
2018-01-26T01:36:44.852Z,34.43
2018-01-26T01:39:12.347Z,41.63
2018-01-26T01:41:40.031Z,33.80
2018-01-26T01:44:07.523Z,31.97
2018-01-26T01:46:35.031Z,36.43
2018-01-26T01:49:14.566Z,30.77
2018-01-26T01:51:42.843Z,43.00
2018-01-26T01:54:11.027Z,30.97
2018-01-26T01:56:38.543Z,41.17
2018-01-26T01:59:06.090Z,28.10
2018-01-26T02:01:33.582Z,32.53
2018-01-26T02:04:01.275Z,33.37
2018-01-26T02:06:29.380Z,32.80
2018-01-26T02:08:57.094Z,29.20
2018-01-26T02:11:24.591Z,34.33
2018-01-26T02:13:52.099Z,21.87
2018-01-26T02:16:19.782Z,33.90
2018-01-26T02:18:47.591Z,26.30
2018-01-26T02:21:15.097Z,26.53
2018-01-26T02:24:00.026Z,29.43
2018-01-26T02:26:27.514Z,35.30
2018-01-26T02:28:55.024Z,28.00
2018-01-26T02:31:22.531Z,29.97
2018-01-26T02:33:50.810Z,40.57
2018-01-26T02:36:18.529Z,31.47
2018-01-26T02:38:46.264Z,36.10
2018-01-26T02:41:13.767Z,32.07
2018-01-26T02:43:41.272Z,33.40
2018-01-26T02:46:08.958Z,26.97
2018-01-26T02:48:37.439Z,30.13
2018-01-26T02:51:05.107Z,39.80
2018-01-26T02:53:32.614Z,29.50
2018-01-26T02:56:00.119Z,24.10
2018-01-26T02:58:27.742Z,23.57
2018-01-26T03:00:55.254Z,32.80
2018-01-26T03:03:22.994Z,29.80
2018-01-26T03:05:50.595Z,26.40
2018-01-26T03:08:18.854Z,34.20
2018-01-26T03:10:46.891Z,27.50
2018-01-26T03:13:14.392Z,33.20
2018-01-26T03:15:42.118Z,20.90
2018-01-26T03:18:09.884Z,21.07
2018-01-26T03:20:38.515Z,22.60
2018-01-26T03:23:06.054Z,31.73
2018-01-26T03:25:33.787Z,23.50
2018-01-26T03:28:01.278Z,28.23
2018-01-26T03:30:28.791Z,23.00
2018-01-26T03:32:56.478Z,22.33
2018-01-26T03:35:23.991Z,22.37
2018-01-26T03:37:51.488Z,23.03
2018-01-26T03:40:18.986Z,35.13
2018-01-26T03:42:47.524Z,30.40
2018-01-26T03:45:15.038Z,24.70
2018-01-26T03:47:42.891Z,33.43
2018-01-26T03:50:11.164Z,31.60
2018-01-26T03:52:41.086Z,22.33
2018-01-26T03:55:08.811Z,29.70
2018-01-26T03:57:36.310Z,21.80
2018-01-26T04:00:03.810Z,24.30
2018-01-26T04:02:31.318Z,29.00
2018-01-26T04:04:59.622Z,22.13
2018-01-26T04:07:27.134Z,25.97
2018-01-26T04:09:54.771Z,37.27
2018-01-26T04:12:22.279Z,35.50
2018-01-26T04:14:50.680Z,28.07
2018-01-26T04:17:18.190Z,25.57
2018-01-26T04:19:45.826Z,29.70
2018-01-26T04:22:13.345Z,24.47
2018-01-26T04:24:40.835Z,26.97
2018-01-26T04:27:08.494Z,24.77
2018-01-26T04:29:35.990Z,21.13
2018-01-26T04:32:03.496Z,26.70
2018-01-26T04:34:31.171Z,35.40
2018-01-26T04:36:58.691Z,24.10
2018-01-26T04:39:26.187Z,29.30
2018-01-26T04:41:53.735Z,25.80
2018-01-26T04:44:21.303Z,25.87
2018-01-26T04:46:49.071Z,27.10
2018-01-26T04:49:16.834Z,30.33
2018-01-26T04:51:44.613Z,29.63
2018-01-26T04:54:12.103Z,32.20
2018-01-26T04:56:39.815Z,26.00
2018-01-26T04:59:07.321Z,28.97
2018-01-26T05:01:35.035Z,23.93
2018-01-26T05:04:03.160Z,28.20
2018-01-26T05:06:30.659Z,30.50
2018-01-26T05:08:58.161Z,42.10
2018-01-26T05:11:26.550Z,32.37
2018-01-26T05:13:54.159Z,26.70
2018-01-26T05:16:21.767Z,19.93
2018-01-26T05:18:50.302Z,31.37
2018-01-26T05:21:18.074Z,29.23
2018-01-26T05:23:45.586Z,36.63
2018-01-26T05:26:13.295Z,27.93
2018-01-26T05:28:41.750Z,35.87
2018-01-26T05:31:09.396Z,33.40
2018-01-26T05:33:37.202Z,32.90
2018-01-26T05:36:04.841Z,31.83
2018-01-26T05:38:32.590Z,31.20
2018-01-26T05:41:00.080Z,37.97
2018-01-26T05:43:28.289Z,29.87
2018-01-26T05:45:55.795Z,42.60
2018-01-26T05:48:23.298Z,32.60
2018-01-26T05:50:51.575Z,41.83
2018-01-26T05:53:19.304Z,44.70
2018-01-26T05:55:46.807Z,48.17
2018-01-26T05:58:14.474Z,44.27
2018-01-26T06:00:41.987Z,44.30
2018-01-26T06:03:09.479Z,56.13
2018-01-26T06:05:37.190Z,53.17
2018-01-26T06:08:04.967Z,44.83
2018-01-26T06:10:32.474Z,46.20
2018-01-26T06:13:00.146Z,49.37
2018-01-26T06:15:27.649Z,43.07
2018-01-26T06:17:55.147Z,49.20
2018-01-26T06:20:22.956Z,47.57
2018-01-26T06:22:50.579Z,53.30
2018-01-26T06:25:18.257Z,46.13
2018-01-26T06:27:45.740Z,47.00
2018-01-26T06:30:13.477Z,50.30
2018-01-26T06:32:41.205Z,50.00
2018-01-26T06:35:08.719Z,51.00
2018-01-26T06:37:36.279Z,48.10
2018-01-26T06:40:03.916Z,45.80
2018-01-26T06:42:31.415Z,43.17
2018-01-26T06:44:59.823Z,48.60
2018-01-26T06:47:27.323Z,49.33
2018-01-26T06:49:54.826Z,37.10
2018-01-26T06:52:22.440Z,53.10
2018-01-26T06:54:50.014Z,42.03
2018-01-26T06:57:17.523Z,35.70
2018-01-26T06:59:45.035Z,46.70
2018-01-26T07:02:12.686Z,47.53
2018-01-26T07:04:40.154Z,44.13
2018-01-26T07:07:07.667Z,42.37
2018-01-26T07:09:35.359Z,46.30
2018-01-26T07:12:03.154Z,42.53
2018-01-26T07:14:30.891Z,42.53
2018-01-26T07:16:58.402Z,45.60
2018-01-26T07:19:25.964Z,41.67
2018-01-26T07:21:53.563Z,39.80
2018-01-26T07:24:21.063Z,44.60
2018-01-26T07:26:49.411Z,50.50
2018-01-26T07:29:17.160Z,47.73
2018-01-26T07:31:44.663Z,54.77
2018-01-26T07:34:12.416Z,50.13
2018-01-26T07:36:40.193Z,51.93
2018-01-26T07:39:07.666Z,50.63
2018-01-26T07:41:35.343Z,59.40
2018-01-26T07:44:03.440Z,65.97
2018-01-26T07:46:30.943Z,51.07
2018-01-26T07:48:58.647Z,50.93
2018-01-26T07:51:26.423Z,49.13
2018-01-26T07:53:53.923Z,56.60
2018-01-26T07:56:22.179Z,49.43
2018-01-26T07:58:50.509Z,53.60
2018-01-26T08:01:17.995Z,45.43
2018-01-26T08:03:45.524Z,53.17
2018-01-26T08:06:13.030Z,49.40
2018-01-26T08:08:40.539Z,49.10
2018-01-26T08:11:08.039Z,54.00
2018-01-26T08:13:36.083Z,65.57
2018-01-26T08:16:03.565Z,58.03
2018-01-26T08:18:31.070Z,60.40
2018-01-26T08:20:59.280Z,57.73
2018-01-26T08:23:26.832Z,65.00
2018-01-26T08:25:54.275Z,65.40
2018-01-26T08:28:21.955Z,62.83
2018-01-26T08:30:49.460Z,75.03
2018-01-26T08:33:17.134Z,60.97
2018-01-26T08:35:44.639Z,61.70
2018-01-26T08:38:12.139Z,69.73
2018-01-26T08:40:39.850Z,68.33
2018-01-26T08:43:07.620Z,70.13
2018-01-26T08:45:35.770Z,75.40
2018-01-26T08:48:03.450Z,58.43
2018-01-26T08:50:30.959Z,73.37
2018-01-26T08:52:58.679Z,67.17
2018-01-26T08:55:28.762Z,63.90
2018-01-26T08:57:56.346Z,60.90
2018-01-26T09:00:23.983Z,60.33
2018-01-26T09:02:51.458Z,69.20
2018-01-26T09:05:19.035Z,71.20
2018-01-26T09:07:46.792Z,78.77
2018-01-26T09:10:14.312Z,73.07
2018-01-26T09:12:41.967Z,71.67
2018-01-26T09:15:09.472Z,70.00
2018-01-26T09:17:37.045Z,65.20
2018-01-26T09:20:04.667Z,73.43
2018-01-26T09:22:32.150Z,67.33
2018-01-26T09:24:59.694Z,83.40
2018-01-26T09:27:27.194Z,84.20
2018-01-26T09:29:55.486Z,68.57
2018-01-26T09:32:23.003Z,66.87
2018-01-26T09:34:50.603Z,73.10
2018-01-26T09:37:18.412Z,66.47
2018-01-26T09:39:46.771Z,71.40
2018-01-26T09:42:14.280Z,78.00
2018-01-26T09:44:42.007Z,83.20
2018-01-26T09:47:09.826Z,84.60
2018-01-26T09:49:37.310Z,79.57
2018-01-26T09:52:05.011Z,76.00
2018-01-26T09:54:32.503Z,76.70
2018-01-26T09:57:00.007Z,95.50
2018-01-26T09:59:27.674Z,73.47
2018-01-26T10:01:55.195Z,71.97
2018-01-26T10:04:22.700Z,84.03
2018-01-26T10:06:50.221Z,76.63
2018-01-26T10:09:17.767Z,88.27
2018-01-26T10:11:45.275Z,81.40
2018-01-26T10:14:12.775Z,79.77
2018-01-26T10:16:40.272Z,72.23
2018-01-26T10:19:07.777Z,88.90
2018-01-26T10:21:36.090Z,82.20
2018-01-26T10:24:03.755Z,89.60
2018-01-26T10:26:31.556Z,77.17
2018-01-26T10:28:59.301Z,82.67
2018-01-26T10:31:26.795Z,67.63
2018-01-26T10:33:54.482Z,74.17
2018-01-26T10:36:21.987Z,81.73
2018-01-26T10:38:49.649Z,76.90
2018-01-26T10:41:17.353Z,81.67
2018-01-26T10:43:44.917Z,69.23
2018-01-26T10:46:12.415Z,93.30
2018-01-26T10:48:40.183Z,76.03
2018-01-26T10:51:07.679Z,73.13
2018-01-26T10:53:35.184Z,71.37
2018-01-26T10:56:02.703Z,81.10
2018-01-26T10:58:30.978Z,78.07
2018-01-26T11:00:58.690Z,85.90
2018-01-26T11:03:27.115Z,79.90
2018-01-26T11:05:54.835Z,76.70
2018-01-26T11:08:22.543Z,88.90
2018-01-26T11:10:50.067Z,92.57
2018-01-26T11:13:17.567Z,77.47
2018-01-26T11:15:45.288Z,80.77
2018-01-26T11:18:13.040Z,79.23
2018-01-26T11:20:40.543Z,74.90
2018-01-26T11:23:09.214Z,82.00
2018-01-26T11:25:36.943Z,87.83
2018-01-26T11:28:04.443Z,92.83
2018-01-26T11:30:32.143Z,81.07
2018-01-26T11:33:00.527Z,76.20
2018-01-26T11:35:28.019Z,83.70
2018-01-26T11:37:55.761Z,93.33
2018-01-26T11:40:23.261Z,76.77
2018-01-26T11:42:50.946Z,83.70
2018-01-26T11:45:18.474Z,94.57
2018-01-26T11:47:45.985Z,87.53
2018-01-26T11:50:13.654Z,78.23
2018-01-26T11:52:42.698Z,81.40
2018-01-26T11:55:10.443Z,78.23
2018-01-26T11:57:38.179Z,73.80
2018-01-26T12:00:05.951Z,74.20
2018-01-26T12:02:33.707Z,69.47
2018-01-26T12:05:01.526Z,74.57
2018-01-26T12:07:29.233Z,82.77
2018-01-26T12:09:56.732Z,72.00
2018-01-26T12:12:24.247Z,93.47
2018-01-26T12:14:51.907Z,83.27
2018-01-26T12:17:19.413Z,68.30
2018-01-26T12:19:46.911Z,81.63
2018-01-26T12:22:14.427Z,80.60
2018-01-26T12:24:42.683Z,80.77
2018-01-26T12:27:10.186Z,54.93
2018-01-26T12:29:37.685Z,71.23
2018-01-26T12:32:05.187Z,70.80
2018-01-26T12:34:32.786Z,85.20
2018-01-26T12:37:00.296Z,78.83
2018-01-26T12:39:27.790Z,62.00
2018-01-26T12:41:55.290Z,78.70
2018-01-26T12:44:22.793Z,67.63
2018-01-26T12:46:50.368Z,70.70
2018-01-26T12:49:17.855Z,76.43
2018-01-26T12:51:45.370Z,60.83
2018-01-26T12:54:12.867Z,70.40
2018-01-26T12:56:40.421Z,70.33
2018-01-26T12:59:07.975Z,64.83
2018-01-26T13:01:35.479Z,82.90
2018-01-26T13:04:03.182Z,71.47
2018-01-26T13:06:30.691Z,58.97
2018-01-26T13:08:58.419Z,59.80
2018-01-26T13:11:25.970Z,72.30
2018-01-26T13:13:53.627Z,77.70
2018-01-26T13:16:21.570Z,79.93
2018-01-26T13:18:49.051Z,77.53
2018-01-26T13:21:16.570Z,92.47
2018-01-26T13:23:44.078Z,92.60
2018-01-26T13:26:11.573Z,95.87
2018-01-26T13:28:39.083Z,88.83
2018-01-26T13:31:06.718Z,86.80
2018-01-26T13:33:34.227Z,94.40
2018-01-26T13:36:01.732Z,97.73
2018-01-26T13:38:29.334Z,96.40
2018-01-26T13:40:57.611Z,95.80
2018-01-26T13:43:25.150Z,89.80
2018-01-26T13:45:52.671Z,102.33
2018-01-26T13:48:20.471Z,98.50
2018-01-26T13:50:48.247Z,85.30
2018-01-26T13:53:15.995Z,90.70
2018-01-26T13:55:43.763Z,89.57
2018-01-26T13:58:11.271Z,96.60
2018-01-26T14:00:38.776Z,93.10
2018-01-26T14:03:06.416Z,90.77
2018-01-26T14:05:33.923Z,101.77
2018-01-26T14:08:01.458Z,105.30
2018-01-26T14:10:29.059Z,94.73
2018-01-26T14:12:56.596Z,91.10
2018-01-26T14:15:24.111Z,98.43
2018-01-26T14:17:51.791Z,71.80
2018-01-26T14:20:19.599Z,82.80
2018-01-26T14:22:47.322Z,86.90
2018-01-26T14:25:14.856Z,88.53
2018-01-26T14:27:42.505Z,74.10
2018-01-26T14:30:10.015Z,89.27
2018-01-26T14:32:37.768Z,98.67
2018-01-26T14:35:05.680Z,83.60
2018-01-26T14:37:33.930Z,95.73
2018-01-26T14:40:01.449Z,106.37
2018-01-26T14:42:29.079Z,90.97
2018-01-26T14:44:56.622Z,92.23
2018-01-26T14:47:24.786Z,92.00
2018-01-26T14:49:53.055Z,105.50
2018-01-26T14:52:21.011Z,99.03
2018-01-26T14:54:48.535Z,90.70
2018-01-26T14:57:16.043Z,100.13
2018-01-26T14:59:43.784Z,86.53
2018-01-26T15:02:11.539Z,86.23
2018-01-26T15:04:39.050Z,86.57
2018-01-26T15:07:06.568Z,96.10
2018-01-26T15:09:34.232Z,77.80
2018-01-26T15:12:01.744Z,86.97
2018-01-26T15:14:29.395Z,86.23
2018-01-26T15:16:56.908Z,80.50
2018-01-26T15:19:24.641Z,97.60
2018-01-26T15:21:52.775Z,98.73
2018-01-26T15:24:20.295Z,93.43
2018-01-26T15:26:48.558Z,95.03
2018-01-26T15:29:16.349Z,91.07
2018-01-26T15:31:43.855Z,88.07
2018-01-26T15:34:11.516Z,83.03
2018-01-26T15:36:39.025Z,102.10
2018-01-26T15:39:06.647Z,89.23
2018-01-26T15:41:34.195Z,94.13
2018-01-26T15:44:01.705Z,93.77
2018-01-26T15:46:29.208Z,83.10
2018-01-26T15:48:56.715Z,102.57
2018-01-26T15:51:24.239Z,89.83
2018-01-26T15:53:52.279Z,99.97
2018-01-26T15:56:19.776Z,91.63
2018-01-26T15:58:48.289Z,102.77
2018-01-26T16:01:15.810Z,87.77
2018-01-26T16:03:43.657Z,98.13
2018-01-26T16:06:11.429Z,96.23
2018-01-26T16:08:38.911Z,98.50
2018-01-26T16:11:06.419Z,109.17
2018-01-26T16:13:33.922Z,105.60
2018-01-26T16:16:03.315Z,77.13
2018-01-26T16:18:30.817Z,97.47
2018-01-26T16:21:02.906Z,95.43
2018-01-26T16:23:30.425Z,73.33
2018-01-26T16:25:58.536Z,72.20
2018-01-26T16:28:26.150Z,76.47
2018-01-26T16:30:53.875Z,86.30
2018-01-26T16:33:21.379Z,78.77
2018-01-26T16:35:49.843Z,75.27
2018-01-26T16:38:17.530Z,85.20
2018-01-26T16:40:45.755Z,87.33
2018-01-26T16:43:14.021Z,76.33
2018-01-26T16:45:41.751Z,67.50
2018-01-26T16:48:09.507Z,92.57
2018-01-26T16:50:37.012Z,85.23
2018-01-26T16:53:04.682Z,79.60
2018-01-26T16:55:32.189Z,57.00
2018-01-26T16:57:59.943Z,54.13
2018-01-26T17:00:27.450Z,70.53
2018-01-26T17:02:54.954Z,60.50
2018-01-26T17:05:22.469Z,63.13
2018-01-26T17:07:51.004Z,79.07
2018-01-26T17:10:18.511Z,57.27
2018-01-26T17:12:46.401Z,48.97
2018-01-26T17:15:13.963Z,56.87
2018-01-26T17:17:41.747Z,60.17
2018-01-26T17:20:09.893Z,51.73
2018-01-26T17:22:37.583Z,60.63
2018-01-26T17:25:05.332Z,51.17
2018-01-26T17:27:33.120Z,57.03
2018-01-26T17:30:00.643Z,69.13
2018-01-26T17:32:28.418Z,57.03
2018-01-26T17:34:56.096Z,74.73
2018-01-26T17:37:23.582Z,60.90
2018-01-26T17:39:51.229Z,56.63
2018-01-26T17:42:18.775Z,63.77
2018-01-26T17:44:46.308Z,60.97
2018-01-26T17:47:14.022Z,64.73
2018-01-26T17:49:42.373Z,65.90
2018-01-26T17:52:10.142Z,61.93
2018-01-26T17:54:37.630Z,72.43
2018-01-26T17:57:05.148Z,57.40
2018-01-26T17:59:32.743Z,57.60
2018-01-26T18:02:00.611Z,67.63
2018-01-26T18:04:28.110Z,73.03
2018-01-26T18:06:55.621Z,66.63
2018-01-26T18:09:23.264Z,56.30
2018-01-26T18:11:50.763Z,74.57
2018-01-26T18:14:18.468Z,80.80
2018-01-26T18:16:45.963Z,70.93
2018-01-26T18:19:14.095Z,70.87
2018-01-26T18:21:41.608Z,74.93
2018-01-26T18:24:09.130Z,70.53
2018-01-26T18:26:36.671Z,78.33
2018-01-26T18:29:04.271Z,65.53
2018-01-26T18:31:32.546Z,76.03
2018-01-26T18:34:00.050Z,61.37
2018-01-26T18:36:27.598Z,51.67
2018-01-26T18:38:55.143Z,64.70
2018-01-26T18:41:22.759Z,63.30
2018-01-26T18:43:50.270Z,64.47
2018-01-26T18:46:17.850Z,75.00
2018-01-26T18:48:45.360Z,73.63
2018-01-26T18:51:12.875Z,120.67
2018-01-26T18:53:40.383Z,67.60
2018-01-26T18:56:08.647Z,66.00
2018-01-26T18:58:36.619Z,122.50
2018-01-26T19:01:04.119Z,70.27
2018-01-26T19:07:34.555Z,56.70
2018-01-26T19:10:02.075Z,71.17
2018-01-26T19:12:29.575Z,86.00
2018-01-26T19:14:57.228Z,95.40
2018-01-26T19:17:25.026Z,81.47
2018-01-26T19:19:52.791Z,107.90
2018-01-26T19:22:20.299Z,78.43
2018-01-26T19:24:47.983Z,101.63
2018-01-26T19:27:15.770Z,98.07
2018-01-26T19:41:24.212Z,105.30
2018-01-26T19:43:51.962Z,105.40
2018-01-26T19:46:19.459Z,93.57
2018-01-26T19:48:47.030Z,116.83
2018-01-26T19:51:14.651Z,100.30
2018-01-26T19:53:42.417Z,121.30
2018-01-26T19:56:10.160Z,101.63
2018-01-26T19:58:37.919Z,106.33
2018-01-26T20:01:05.696Z,115.03
2018-01-26T20:03:33.254Z,120.27
2018-01-26T20:06:06.391Z,119.83
2018-01-26T20:08:39.611Z,119.23
2018-01-26T20:11:07.237Z,80.27
2018-01-26T20:13:35.531Z,90.30
2018-01-26T20:16:03.053Z,93.07
2018-01-26T20:18:30.707Z,83.33
2018-01-26T20:20:58.248Z,67.70
2018-01-26T20:23:25.756Z,64.30
2018-01-26T20:25:53.636Z,73.50
2018-01-26T20:28:21.132Z,80.90
2018-01-26T20:30:48.669Z,58.27
2018-01-26T20:33:16.167Z,68.23
2018-01-26T20:35:44.444Z,75.43
2018-01-26T20:38:11.967Z,67.87
2018-01-26T20:40:39.486Z,76.43
2018-01-26T20:43:07.879Z,66.43
2018-01-26T20:45:35.394Z,67.30
2018-01-26T20:48:02.895Z,63.07
2018-01-26T20:50:30.407Z,66.37
2018-01-26T20:52:57.908Z,61.37
2018-01-26T20:55:25.599Z,74.53
2018-01-26T20:57:53.092Z,69.57
2018-01-26T21:00:20.612Z,82.07
2018-01-26T21:02:48.448Z,69.47
2018-01-26T21:05:15.963Z,65.97
2018-01-26T21:07:43.518Z,62.63
2018-01-26T21:10:11.222Z,68.20
2018-01-26T21:12:38.703Z,66.30
2018-01-26T21:15:06.494Z,53.67
2018-01-26T21:17:34.247Z,65.37
2018-01-26T21:20:01.776Z,66.20
2018-01-26T21:22:29.264Z,64.03
2018-01-26T21:24:56.894Z,48.63
2018-01-26T21:27:24.700Z,45.47
2018-01-26T21:29:52.225Z,50.63
2018-01-26T21:32:19.901Z,53.97
2018-01-26T21:34:47.429Z,54.30
2018-01-26T21:37:15.091Z,68.83
2018-01-26T21:39:42.608Z,54.60
2018-01-26T21:42:10.213Z,55.53
2018-01-26T21:44:37.770Z,52.33
2018-01-26T21:47:05.292Z,55.53
2018-01-26T21:49:32.787Z,55.40
2018-01-26T21:52:00.316Z,58.43
2018-01-26T21:54:28.729Z,48.90
2018-01-26T21:56:56.312Z,51.50
2018-01-26T21:59:23.807Z,48.73
2018-01-26T22:01:51.316Z,53.00
2018-01-26T22:04:18.827Z,51.07
2018-01-26T22:06:52.881Z,44.53
2018-01-26T22:09:20.421Z,42.03
2018-01-26T22:11:47.944Z,54.17
2018-01-26T22:14:16.456Z,45.73
2018-01-26T22:16:43.969Z,52.73
2018-01-26T22:19:11.480Z,46.53
2018-01-26T22:21:38.978Z,42.30
2018-01-26T22:24:06.582Z,54.50
2018-01-26T22:26:34.201Z,49.03
2018-01-26T22:29:01.864Z,45.60
2018-01-26T22:31:29.380Z,43.40
2018-01-26T22:33:56.889Z,50.87
2018-01-26T22:36:24.798Z,42.07
2018-01-26T22:38:53.011Z,42.67
2018-01-26T22:41:20.622Z,36.50
2018-01-26T22:43:48.151Z,40.70
2018-01-26T22:46:15.879Z,49.13
2018-01-26T22:48:43.408Z,39.97
2018-01-26T22:51:11.252Z,48.10
2018-01-26T22:53:38.748Z,53.60
2018-01-26T22:56:06.311Z,57.80
2018-01-26T22:58:33.844Z,48.27
2018-01-26T23:01:01.458Z,51.73
2018-01-26T23:03:28.979Z,56.63
2018-01-26T23:05:56.928Z,57.07
2018-01-26T23:08:24.439Z,58.60
2018-01-26T23:10:51.956Z,60.57
2018-01-26T23:13:19.485Z,55.47
2018-01-26T23:15:46.995Z,55.93
2018-01-26T23:18:14.512Z,54.77
2018-01-26T23:20:42.099Z,60.27
2018-01-26T23:23:10.485Z,49.63
2018-01-26T23:25:38.041Z,54.00
2018-01-26T23:28:05.715Z,54.17
2018-01-26T23:30:33.227Z,45.70
2018-01-26T23:33:00.946Z,48.00
2018-01-26T23:35:28.690Z,45.50
2018-01-26T23:37:56.462Z,42.43
2018-01-26T23:40:25.898Z,42.43
2018-01-26T23:42:53.714Z,36.90
2018-01-26T23:45:21.298Z,21.87
2018-01-26T23:47:49.553Z,27.37
2018-01-26T23:50:17.067Z,29.93
2018-01-26T23:52:44.590Z,37.57
2018-01-26T23:55:12.886Z,33.70
2018-01-26T23:57:40.399Z,31.40
